sensor_id;sensor_type;location;lat;lon;timestamp;pressure;altitude;pressure_sealevel;temperature;humidity
46392;BME280;32098;49.448;7.904;2023-08-31T00:00:50;97578.44;;;11.60;83.18
46392;BME280;32098;49.448;7.904;2023-08-31T00:03:19;97575.50;;;11.61;82.37
46392;BME280;32098;49.448;7.904;2023-08-31T00:05:46;97579.88;;;11.67;81.74
46392;BME280;32098;49.448;7.904;2023-08-31T00:08:13;97585.91;;;11.58;81.78
46392;BME280;32098;49.448;7.904;2023-08-31T00:10:40;97581.41;;;11.63;82.07
46392;BME280;32098;49.448;7.904;2023-08-31T00:13:08;97589.47;;;11.68;82.55
46392;BME280;32098;49.448;7.904;2023-08-31T00:15:35;97590.13;;;11.81;82.18
46392;BME280;32098;49.448;7.904;2023-08-31T00:18:03;97586.16;;;11.83;82.87
46392;BME280;32098;49.448;7.904;2023-08-31T00:20:30;97580.25;;;11.81;83.30
46392;BME280;32098;49.448;7.904;2023-08-31T00:22:57;97591.81;;;11.87;84.18
46392;BME280;32098;49.448;7.904;2023-08-31T00:25:24;97592.41;;;11.94;83.71
46392;BME280;32098;49.448;7.904;2023-08-31T00:27:51;97592.41;;;11.94;83.43
46392;BME280;32098;49.448;7.904;2023-08-31T00:30:18;97590.28;;;11.96;83.49
46392;BME280;32098;49.448;7.904;2023-08-31T00:32:46;97593.22;;;11.94;82.86
46392;BME280;32098;49.448;7.904;2023-08-31T00:35:16;97602.06;;;11.95;82.91
46392;BME280;32098;49.448;7.904;2023-08-31T00:37:43;97601.50;;;11.93;83.09
46392;BME280;32098;49.448;7.904;2023-08-31T00:40:10;97596.91;;;11.88;82.16
46392;BME280;32098;49.448;7.904;2023-08-31T00:42:40;97599.25;;;11.80;82.52
46392;BME280;32098;49.448;7.904;2023-08-31T00:45:07;97602.00;;;11.90;82.85
46392;BME280;32098;49.448;7.904;2023-08-31T00:47:34;97598.16;;;11.81;82.54
46392;BME280;32098;49.448;7.904;2023-08-31T00:50:00;97591.22;;;11.80;83.22
46392;BME280;32098;49.448;7.904;2023-08-31T00:52:28;97592.06;;;11.85;82.74
46392;BME280;32098;49.448;7.904;2023-08-31T00:54:55;97593.38;;;11.83;83.77
46392;BME280;32098;49.448;7.904;2023-08-31T00:57:22;97588.59;;;11.85;83.06
46392;BME280;32098;49.448;7.904;2023-08-31T00:59:52;97589.69;;;11.89;82.83
46392;BME280;32098;49.448;7.904;2023-08-31T01:05:25;97598.22;;;11.86;83.32
46392;BME280;32098;49.448;7.904;2023-08-31T01:08:11;97593.50;;;11.93;82.69
46392;BME280;32098;49.448;7.904;2023-08-31T01:10:51;97593.53;;;11.98;82.20
46392;BME280;32098;49.448;7.904;2023-08-31T01:13:24;97606.88;;;11.93;82.31
46392;BME280;32098;49.448;7.904;2023-08-31T01:15:54;97601.78;;;11.96;82.30
46392;BME280;32098;49.448;7.904;2023-08-31T01:18:23;97599.88;;;11.92;82.13
46392;BME280;32098;49.448;7.904;2023-08-31T01:21:12;97601.50;;;11.93;82.36
46392;BME280;32098;49.448;7.904;2023-08-31T01:23:51;97605.44;;;11.85;82.69
46392;BME280;32098;49.448;7.904;2023-08-31T01:26:20;97591.75;;;11.82;82.18
46392;BME280;32098;49.448;7.904;2023-08-31T01:28:49;97601.19;;;11.89;81.68
46392;BME280;32098;49.448;7.904;2023-08-31T01:31:17;97606.22;;;11.86;81.78
46392;BME280;32098;49.448;7.904;2023-08-31T01:33:46;97608.56;;;11.77;81.03
46392;BME280;32098;49.448;7.904;2023-08-31T01:36:29;97615.78;;;11.76;80.55
46392;BME280;32098;49.448;7.904;2023-08-31T01:39:07;97610.06;;;11.68;80.36
46392;BME280;32098;49.448;7.904;2023-08-31T01:41:40;97604.91;;;11.61;80.63
46392;BME280;32098;49.448;7.904;2023-08-31T01:44:12;97612.69;;;11.63;80.71
46392;BME280;32098;49.448;7.904;2023-08-31T01:46:46;97615.81;;;11.55;81.70
46392;BME280;32098;49.448;7.904;2023-08-31T01:49:12;97619.38;;;11.60;81.53
46392;BME280;32098;49.448;7.904;2023-08-31T01:51:40;97620.41;;;11.59;81.65
46392;BME280;32098;49.448;7.904;2023-08-31T01:54:07;97619.88;;;11.57;81.93
46392;BME280;32098;49.448;7.904;2023-08-31T01:56:33;97623.97;;;11.65;81.33
46392;BME280;32098;49.448;7.904;2023-08-31T01:59:00;97617.09;;;11.74;81.03
46392;BME280;32098;49.448;7.904;2023-08-31T02:01:27;97620.28;;;11.71;80.56
46392;BME280;32098;49.448;7.904;2023-08-31T02:03:55;97623.34;;;11.58;80.99
46392;BME280;32098;49.448;7.904;2023-08-31T02:06:22;97624.72;;;11.60;81.49
46392;BME280;32098;49.448;7.904;2023-08-31T02:08:48;97627.88;;;11.57;81.85
46392;BME280;32098;49.448;7.904;2023-08-31T02:11:17;97633.66;;;11.49;81.92
46392;BME280;32098;49.448;7.904;2023-08-31T02:13:43;97629.63;;;11.47;81.64
46392;BME280;32098;49.448;7.904;2023-08-31T02:16:10;97630.13;;;11.44;81.58
46392;BME280;32098;49.448;7.904;2023-08-31T02:18:37;97633.56;;;11.39;82.35
46392;BME280;32098;49.448;7.904;2023-08-31T02:21:04;97636.16;;;11.34;82.46
46392;BME280;32098;49.448;7.904;2023-08-31T02:23:33;97640.38;;;11.30;82.42
46392;BME280;32098;49.448;7.904;2023-08-31T02:26:01;97642.00;;;11.31;82.80
46392;BME280;32098;49.448;7.904;2023-08-31T02:28:27;97645.47;;;11.32;82.54
46392;BME280;32098;49.448;7.904;2023-08-31T02:31:01;97639.22;;;11.26;82.75
46392;BME280;32098;49.448;7.904;2023-08-31T02:33:29;97645.06;;;11.23;82.69
46392;BME280;32098;49.448;7.904;2023-08-31T02:35:56;97645.56;;;11.20;82.60
46392;BME280;32098;49.448;7.904;2023-08-31T02:38:23;97650.94;;;11.20;82.85
46392;BME280;32098;49.448;7.904;2023-08-31T02:40:51;97636.34;;;11.11;82.43
46392;BME280;32098;49.448;7.904;2023-08-31T02:43:17;97636.97;;;11.18;82.61
46392;BME280;32098;49.448;7.904;2023-08-31T02:45:44;97631.81;;;11.11;82.20
46392;BME280;32098;49.448;7.904;2023-08-31T02:48:10;97626.97;;;11.08;82.59
46392;BME280;32098;49.448;7.904;2023-08-31T02:50:38;97634.50;;;11.11;82.39
46392;BME280;32098;49.448;7.904;2023-08-31T02:53:05;97626.75;;;11.10;82.46
46392;BME280;32098;49.448;7.904;2023-08-31T02:55:32;97632.00;;;11.05;82.72
46392;BME280;32098;49.448;7.904;2023-08-31T02:57:59;97625.03;;;11.04;82.58
46392;BME280;32098;49.448;7.904;2023-08-31T03:00:26;97636.22;;;11.01;82.56
46392;BME280;32098;49.448;7.904;2023-08-31T03:02:53;97624.97;;;10.99;82.13
46392;BME280;32098;49.448;7.904;2023-08-31T03:05:20;97635.25;;;11.07;81.71
46392;BME280;32098;49.448;7.904;2023-08-31T03:07:50;97647.53;;;11.08;82.20
46392;BME280;32098;49.448;7.904;2023-08-31T03:10:17;97659.69;;;10.99;82.13
46392;BME280;32098;49.448;7.904;2023-08-31T03:12:44;97649.91;;;11.04;81.84
46392;BME280;32098;49.448;7.904;2023-08-31T03:15:11;97652.88;;;11.08;81.83
46392;BME280;32098;49.448;7.904;2023-08-31T03:17:37;97664.31;;;11.03;82.12
46392;BME280;32098;49.448;7.904;2023-08-31T03:20:04;97661.47;;;11.10;81.89
46392;BME280;32098;49.448;7.904;2023-08-31T03:22:32;97657.72;;;11.11;81.45
46392;BME280;32098;49.448;7.904;2023-08-31T03:24:59;97653.13;;;11.06;81.03
46392;BME280;32098;49.448;7.904;2023-08-31T03:27:26;97669.97;;;11.07;81.47
46392;BME280;32098;49.448;7.904;2023-08-31T03:29:52;97666.75;;;11.05;81.64
46392;BME280;32098;49.448;7.904;2023-08-31T03:32:19;97667.78;;;11.04;81.70
46392;BME280;32098;49.448;7.904;2023-08-31T03:34:45;97667.38;;;11.12;81.34
46392;BME280;32098;49.448;7.904;2023-08-31T03:37:12;97661.97;;;11.07;81.40
46392;BME280;32098;49.448;7.904;2023-08-31T03:39:39;97672.66;;;11.07;81.61
46392;BME280;32098;49.448;7.904;2023-08-31T03:42:08;97672.16;;;11.10;81.56
46392;BME280;32098;49.448;7.904;2023-08-31T03:44:35;97671.28;;;11.04;81.53
46392;BME280;32098;49.448;7.904;2023-08-31T03:47:03;97669.16;;;11.06;81.43
46392;BME280;32098;49.448;7.904;2023-08-31T03:49:32;97662.44;;;11.04;81.06
46392;BME280;32098;49.448;7.904;2023-08-31T03:51:59;97670.09;;;10.79;80.58
46392;BME280;32098;49.448;7.904;2023-08-31T03:54:26;97673.16;;;10.71;80.54
46392;BME280;32098;49.448;7.904;2023-08-31T03:56:53;97679.00;;;10.68;80.10
46392;BME280;32098;49.448;7.904;2023-08-31T03:59:20;97685.16;;;10.52;79.86
46392;BME280;32098;49.448;7.904;2023-08-31T04:01:46;97680.22;;;10.60;80.19
46392;BME280;32098;49.448;7.904;2023-08-31T04:04:13;97678.69;;;10.47;80.36
46392;BME280;32098;49.448;7.904;2023-08-31T04:06:40;97685.47;;;10.55;80.91
46392;BME280;32098;49.448;7.904;2023-08-31T04:09:06;97681.25;;;10.59;81.09
46392;BME280;32098;49.448;7.904;2023-08-31T04:11:33;97680.88;;;10.67;80.64
46392;BME280;32098;49.448;7.904;2023-08-31T04:13:59;97692.38;;;10.68;80.11
46392;BME280;32098;49.448;7.904;2023-08-31T04:16:26;97702.06;;;10.57;79.56
46392;BME280;32098;49.448;7.904;2023-08-31T04:18:55;97686.75;;;10.36;79.68
46392;BME280;32098;49.448;7.904;2023-08-31T04:21:21;97685.19;;;10.23;80.62
46392;BME280;32098;49.448;7.904;2023-08-31T04:23:48;97690.69;;;10.17;81.06
46392;BME280;32098;49.448;7.904;2023-08-31T04:26:15;97695.03;;;10.06;81.08
46392;BME280;32098;49.448;7.904;2023-08-31T04:28:43;97695.59;;;10.08;80.56
46392;BME280;32098;49.448;7.904;2023-08-31T04:31:10;97691.88;;;10.09;80.45
46392;BME280;32098;49.448;7.904;2023-08-31T04:33:38;97687.47;;;10.15;80.23
46392;BME280;32098;49.448;7.904;2023-08-31T04:36:05;97695.38;;;9.98;80.39
46392;BME280;32098;49.448;7.904;2023-08-31T04:38:33;97695.59;;;10.08;80.43
46392;BME280;32098;49.448;7.904;2023-08-31T04:41:00;97700.53;;;10.16;79.86
46392;BME280;32098;49.448;7.904;2023-08-31T04:43:27;97705.63;;;10.18;79.90
46392;BME280;32098;49.448;7.904;2023-08-31T04:45:54;97709.22;;;10.23;80.11
46392;BME280;32098;49.448;7.904;2023-08-31T04:48:21;97713.91;;;10.33;80.06
46392;BME280;32098;49.448;7.904;2023-08-31T04:50:48;97713.72;;;10.23;80.41
46392;BME280;32098;49.448;7.904;2023-08-31T04:53:14;97713.03;;;10.27;80.42
46392;BME280;32098;49.448;7.904;2023-08-31T04:55:41;97712.88;;;10.34;79.29
46392;BME280;32098;49.448;7.904;2023-08-31T04:58:08;97710.63;;;10.42;79.58
46392;BME280;32098;49.448;7.904;2023-08-31T05:00:35;97716.75;;;10.43;80.73
46392;BME280;32098;49.448;7.904;2023-08-31T05:03:01;97724.16;;;10.53;80.71
46392;BME280;32098;49.448;7.904;2023-08-31T05:05:29;97720.75;;;10.57;81.16
46392;BME280;32098;49.448;7.904;2023-08-31T05:07:59;97714.50;;;10.52;81.60
46392;BME280;32098;49.448;7.904;2023-08-31T05:10:25;97718.22;;;10.50;82.13
46392;BME280;32098;49.448;7.904;2023-08-31T05:12:52;97724.47;;;10.56;82.08
46392;BME280;32098;49.448;7.904;2023-08-31T05:15:18;97727.47;;;10.60;81.85
46392;BME280;32098;49.448;7.904;2023-08-31T05:17:45;97736.03;;;10.62;82.11
46392;BME280;32098;49.448;7.904;2023-08-31T05:20:11;97731.44;;;10.57;81.97
46392;BME280;32098;49.448;7.904;2023-08-31T05:22:39;97740.34;;;10.63;82.08
46392;BME280;32098;49.448;7.904;2023-08-31T05:25:05;97739.38;;;10.69;81.99
46392;BME280;32098;49.448;7.904;2023-08-31T05:27:32;97738.88;;;10.72;81.98
46392;BME280;32098;49.448;7.904;2023-08-31T05:29:59;97746.16;;;10.76;81.57
46392;BME280;32098;49.448;7.904;2023-08-31T05:32:28;97746.50;;;10.80;81.79
46392;BME280;32098;49.448;7.904;2023-08-31T05:34:54;97744.56;;;10.92;81.71
46392;BME280;32098;49.448;7.904;2023-08-31T05:37:21;97736.38;;;11.15;81.01
46392;BME280;32098;49.448;7.904;2023-08-31T05:39:48;97745.91;;;11.44;79.74
46392;BME280;32098;49.448;7.904;2023-08-31T05:42:16;97750.59;;;11.75;78.71
46392;BME280;32098;49.448;7.904;2023-08-31T05:44:42;97757.66;;;12.30;85.02
46392;BME280;32098;49.448;7.904;2023-08-31T05:47:10;97755.97;;;12.72;82.05
46392;BME280;32098;49.448;7.904;2023-08-31T05:49:36;97752.59;;;13.19;79.70
46392;BME280;32098;49.448;7.904;2023-08-31T05:52:03;97753.16;;;13.57;77.02
46392;BME280;32098;49.448;7.904;2023-08-31T05:54:29;97759.22;;;13.95;74.74
46392;BME280;32098;49.448;7.904;2023-08-31T05:56:56;97762.84;;;14.30;72.54
46392;BME280;32098;49.448;7.904;2023-08-31T05:59:22;97770.44;;;14.59;70.87
46392;BME280;32098;49.448;7.904;2023-08-31T06:01:49;97769.44;;;14.95;69.18
46392;BME280;32098;49.448;7.904;2023-08-31T06:04:17;97764.56;;;15.27;67.46
46392;BME280;32098;49.448;7.904;2023-08-31T06:06:43;97765.09;;;15.60;65.48
46392;BME280;32098;49.448;7.904;2023-08-31T06:09:10;97769.03;;;15.92;64.33
46392;BME280;32098;49.448;7.904;2023-08-31T06:11:37;97772.44;;;16.18;63.66
46392;BME280;32098;49.448;7.904;2023-08-31T06:14:03;97767.47;;;16.45;63.29
46392;BME280;32098;49.448;7.904;2023-08-31T06:16:30;97771.94;;;16.65;62.56
46392;BME280;32098;49.448;7.904;2023-08-31T06:18:56;97768.50;;;16.93;61.70
46392;BME280;32098;49.448;7.904;2023-08-31T06:21:23;97765.88;;;17.17;61.06
46392;BME280;32098;49.448;7.904;2023-08-31T06:23:49;97765.22;;;17.35;60.44
46392;BME280;32098;49.448;7.904;2023-08-31T06:26:16;97774.38;;;17.39;60.16
46392;BME280;32098;49.448;7.904;2023-08-31T06:28:42;97768.44;;;17.37;59.71
46392;BME280;32098;49.448;7.904;2023-08-31T06:31:09;97776.81;;;17.35;60.05
46392;BME280;32098;49.448;7.904;2023-08-31T06:33:35;97774.41;;;17.34;60.07
46392;BME280;32098;49.448;7.904;2023-08-31T06:36:03;97780.81;;;17.43;59.91
46392;BME280;32098;49.448;7.904;2023-08-31T06:38:30;97780.75;;;17.48;59.97
46392;BME280;32098;49.448;7.904;2023-08-31T06:40:56;97780.09;;;17.61;59.87
46392;BME280;32098;49.448;7.904;2023-08-31T06:43:25;97782.75;;;17.66;59.38
46392;BME280;32098;49.448;7.904;2023-08-31T06:45:55;97787.44;;;17.79;58.67
46392;BME280;32098;49.448;7.904;2023-08-31T06:48:32;97783.13;;;18.02;58.15
46392;BME280;32098;49.448;7.904;2023-08-31T06:50:59;97792.41;;;18.20;58.55
46392;BME280;32098;49.448;7.904;2023-08-31T06:53:26;97787.56;;;18.40;58.54
46392;BME280;32098;49.448;7.904;2023-08-31T06:55:53;97795.69;;;18.40;57.26
46392;BME280;32098;49.448;7.904;2023-08-31T06:58:19;97799.97;;;18.23;58.01
46392;BME280;32098;49.448;7.904;2023-08-31T07:00:47;97798.81;;;18.29;56.70
46392;BME280;32098;49.448;7.904;2023-08-31T07:03:14;97799.13;;;18.46;56.93
46392;BME280;32098;49.448;7.904;2023-08-31T07:05:42;97798.63;;;18.62;56.82
46392;BME280;32098;49.448;7.904;2023-08-31T07:08:10;97798.28;;;18.88;56.12
46392;BME280;32098;49.448;7.904;2023-08-31T07:10:36;97800.56;;;18.99;55.00
46392;BME280;32098;49.448;7.904;2023-08-31T07:13:04;97802.66;;;19.21;54.67
46392;BME280;32098;49.448;7.904;2023-08-31T07:15:31;97805.78;;;19.28;54.15
46392;BME280;32098;49.448;7.904;2023-08-31T07:17:58;97799.69;;;19.36;54.38
46392;BME280;32098;49.448;7.904;2023-08-31T07:20:24;97802.66;;;19.53;53.70
46392;BME280;32098;49.448;7.904;2023-08-31T07:22:52;97805.50;;;19.62;53.88
46392;BME280;32098;49.448;7.904;2023-08-31T07:25:18;97804.72;;;19.75;53.07
46392;BME280;32098;49.448;7.904;2023-08-31T07:27:45;97796.19;;;19.68;52.80
46392;BME280;32098;49.448;7.904;2023-08-31T07:30:12;97811.53;;;19.40;53.19
46392;BME280;32098;49.448;7.904;2023-08-31T07:32:39;97809.88;;;19.25;53.60
46392;BME280;32098;49.448;7.904;2023-08-31T07:35:06;97810.28;;;19.19;54.54
46392;BME280;32098;49.448;7.904;2023-08-31T07:37:33;97813.47;;;19.02;53.60
46392;BME280;32098;49.448;7.904;2023-08-31T07:39:59;97815.59;;;19.05;53.33
46392;BME280;32098;49.448;7.904;2023-08-31T07:42:26;97807.97;;;19.26;54.23
46392;BME280;32098;49.448;7.904;2023-08-31T07:44:53;97826.47;;;19.38;53.31
46392;BME280;32098;49.448;7.904;2023-08-31T07:47:19;97813.53;;;19.34;52.86
46392;BME280;32098;49.448;7.904;2023-08-31T07:49:46;97820.94;;;19.29;53.28
46392;BME280;32098;49.448;7.904;2023-08-31T07:52:12;97822.84;;;19.28;53.25
46392;BME280;32098;49.448;7.904;2023-08-31T07:54:39;97830.16;;;19.60;53.42
46392;BME280;32098;49.448;7.904;2023-08-31T07:57:05;97829.41;;;19.73;52.29
46392;BME280;32098;49.448;7.904;2023-08-31T07:59:32;97833.38;;;19.94;52.39
46392;BME280;32098;49.448;7.904;2023-08-31T08:01:59;97835.38;;;20.16;51.56
46392;BME280;32098;49.448;7.904;2023-08-31T08:04:26;97839.31;;;20.37;51.61
46392;BME280;32098;49.448;7.904;2023-08-31T08:06:53;97838.22;;;20.38;50.54
46392;BME280;32098;49.448;7.904;2023-08-31T08:09:20;97837.22;;;20.62;51.02
46392;BME280;32098;49.448;7.904;2023-08-31T08:11:47;97838.75;;;20.90;51.28
46392;BME280;32098;49.448;7.904;2023-08-31T08:14:13;97850.00;;;20.97;50.43
46392;BME280;32098;49.448;7.904;2023-08-31T08:16:42;97841.53;;;20.98;50.03
46392;BME280;32098;49.448;7.904;2023-08-31T08:19:08;97844.06;;;21.08;48.75
46392;BME280;32098;49.448;7.904;2023-08-31T08:21:35;97850.81;;;20.97;47.83
46392;BME280;32098;49.448;7.904;2023-08-31T08:24:01;97857.47;;;20.78;47.97
46392;BME280;32098;49.448;7.904;2023-08-31T08:26:29;97851.25;;;20.64;47.97
46392;BME280;32098;49.448;7.904;2023-08-31T08:28:56;97853.41;;;20.39;47.97
46392;BME280;32098;49.448;7.904;2023-08-31T08:31:22;97853.19;;;20.36;48.43
46392;BME280;32098;49.448;7.904;2023-08-31T08:33:51;97860.91;;;20.29;48.67
46392;BME280;32098;49.448;7.904;2023-08-31T08:36:17;97864.63;;;20.19;47.85
46392;BME280;32098;49.448;7.904;2023-08-31T08:38:44;97856.72;;;20.36;48.72
46392;BME280;32098;49.448;7.904;2023-08-31T08:41:10;97865.31;;;20.66;48.59
46392;BME280;32098;49.448;7.904;2023-08-31T08:43:42;97861.91;;;20.74;47.36
46392;BME280;32098;49.448;7.904;2023-08-31T08:46:10;97871.63;;;20.88;47.58
46392;BME280;32098;49.448;7.904;2023-08-31T08:48:37;97860.63;;;21.07;47.93
46392;BME280;32098;49.448;7.904;2023-08-31T08:51:06;97873.50;;;21.15;47.37
46392;BME280;32098;49.448;7.904;2023-08-31T08:53:34;97860.44;;;21.17;47.84
46392;BME280;32098;49.448;7.904;2023-08-31T08:56:00;97861.88;;;21.37;46.48
46392;BME280;32098;49.448;7.904;2023-08-31T08:58:27;97861.44;;;21.43;44.93
46392;BME280;32098;49.448;7.904;2023-08-31T09:00:54;97860.38;;;21.53;45.42
46392;BME280;32098;49.448;7.904;2023-08-31T09:03:23;97860.88;;;21.77;46.66
46392;BME280;32098;49.448;7.904;2023-08-31T09:05:51;97861.75;;;21.86;46.00
46392;BME280;32098;49.448;7.904;2023-08-31T09:08:27;97862.41;;;21.69;43.40
46392;BME280;32098;49.448;7.904;2023-08-31T09:10:57;97860.19;;;21.71;44.42
46392;BME280;32098;49.448;7.904;2023-08-31T09:13:28;97854.81;;;21.58;44.15
46392;BME280;32098;49.448;7.904;2023-08-31T09:15:56;97855.53;;;21.28;42.69
46392;BME280;32098;49.448;7.904;2023-08-31T09:18:27;97860.63;;;21.07;43.10
46392;BME280;32098;49.448;7.904;2023-08-31T09:20:55;97863.97;;;21.04;42.71
46392;BME280;32098;49.448;7.904;2023-08-31T09:23:25;97871.22;;;20.95;43.05
46392;BME280;32098;49.448;7.904;2023-08-31T09:25:53;97872.50;;;21.11;42.98
46392;BME280;32098;49.448;7.904;2023-08-31T09:28:27;97869.88;;;21.19;42.87
46392;BME280;32098;49.448;7.904;2023-08-31T09:31:07;97873.19;;;21.52;44.83
46392;BME280;32098;49.448;7.904;2023-08-31T09:33:35;97873.47;;;21.29;42.73
46392;BME280;32098;49.448;7.904;2023-08-31T09:36:03;97867.47;;;21.40;41.97
46392;BME280;32098;49.448;7.904;2023-08-31T09:38:32;97860.94;;;21.41;40.81
46392;BME280;32098;49.448;7.904;2023-08-31T09:41:07;97863.09;;;21.53;40.73
46392;BME280;32098;49.448;7.904;2023-08-31T09:43:33;97864.38;;;21.33;41.05
46392;BME280;32098;49.448;7.904;2023-08-31T09:46:00;97866.41;;;20.92;41.61
46392;BME280;32098;49.448;7.904;2023-08-31T09:48:29;97880.44;;;20.44;41.35
46392;BME280;32098;49.448;7.904;2023-08-31T09:51:03;97877.00;;;20.52;40.76
46392;BME280;32098;49.448;7.904;2023-08-31T09:53:31;97881.19;;;20.31;41.15
46392;BME280;32098;49.448;7.904;2023-08-31T09:55:59;97878.38;;;20.23;41.78
46392;BME280;32098;49.448;7.904;2023-08-31T09:58:26;97874.94;;;20.04;42.04
46392;BME280;32098;49.448;7.904;2023-08-31T10:00:55;97878.56;;;20.13;42.10
46392;BME280;32098;49.448;7.904;2023-08-31T10:03:22;97878.88;;;20.11;41.80
46392;BME280;32098;49.448;7.904;2023-08-31T10:05:50;97872.16;;;20.22;42.05
46392;BME280;32098;49.448;7.904;2023-08-31T10:08:17;97871.38;;;20.49;42.27
46392;BME280;32098;49.448;7.904;2023-08-31T10:10:45;97870.06;;;20.60;42.72
46392;BME280;32098;49.448;7.904;2023-08-31T10:13:13;97874.38;;;20.34;40.54
46392;BME280;32098;49.448;7.904;2023-08-31T10:15:43;97880.50;;;20.67;42.12
46392;BME280;32098;49.448;7.904;2023-08-31T10:18:10;97877.59;;;20.63;41.89
46392;BME280;32098;49.448;7.904;2023-08-31T10:20:36;97875.34;;;20.92;42.38
46392;BME280;32098;49.448;7.904;2023-08-31T10:23:05;97871.72;;;20.97;42.91
46392;BME280;32098;49.448;7.904;2023-08-31T10:28:17;97870.28;;;21.13;43.21
46392;BME280;32098;49.448;7.904;2023-08-31T10:31:09;97873.97;;;20.68;44.50
46392;BME280;32098;49.448;7.904;2023-08-31T10:33:42;97869.25;;;20.46;42.94
46392;BME280;32098;49.448;7.904;2023-08-31T10:36:18;97866.63;;;20.14;43.03
46392;BME280;32098;49.448;7.904;2023-08-31T10:38:46;97873.72;;;19.96;43.76
46392;BME280;32098;49.448;7.904;2023-08-31T10:41:22;97876.66;;;19.67;44.22
46392;BME280;32098;49.448;7.904;2023-08-31T10:43:54;97880.25;;;19.63;44.80
46392;BME280;32098;49.448;7.904;2023-08-31T10:46:33;97886.53;;;19.40;45.62
46392;BME280;32098;49.448;7.904;2023-08-31T10:51:38;97888.91;;;19.27;45.51
46392;BME280;32098;49.448;7.904;2023-08-31T10:59:41;97879.06;;;18.99;44.98
46392;BME280;32098;49.448;7.904;2023-08-31T11:02:08;97877.72;;;18.97;45.99
46392;BME280;32098;49.448;7.904;2023-08-31T11:05:02;97875.31;;;18.95;46.51
46392;BME280;32098;49.448;7.904;2023-08-31T11:07:31;97871.50;;;18.96;46.76
46392;BME280;32098;49.448;7.904;2023-08-31T11:10:23;97868.28;;;18.94;46.25
46392;BME280;32098;49.448;7.904;2023-08-31T11:12:53;97877.72;;;18.97;46.91
46392;BME280;32098;49.448;7.904;2023-08-31T11:15:22;97876.59;;;18.79;46.41
46392;BME280;32098;49.448;7.904;2023-08-31T11:17:50;97872.13;;;18.46;47.08
46392;BME280;32098;49.448;7.904;2023-08-31T11:20:20;97877.47;;;18.51;47.67
46392;BME280;32098;49.448;7.904;2023-08-31T11:22:48;97880.50;;;18.68;46.96
46392;BME280;32098;49.448;7.904;2023-08-31T11:25:21;97881.16;;;18.60;47.35
46392;BME280;32098;49.448;7.904;2023-08-31T11:27:59;97875.28;;;18.53;47.53
46392;BME280;32098;49.448;7.904;2023-08-31T11:30:27;97874.16;;;18.59;47.79
46392;BME280;32098;49.448;7.904;2023-08-31T11:32:54;97863.38;;;18.54;47.54
46392;BME280;32098;49.448;7.904;2023-08-31T11:35:22;97877.13;;;18.57;48.22
46392;BME280;32098;49.448;7.904;2023-08-31T11:37:55;97877.06;;;18.62;47.97
46392;BME280;32098;49.448;7.904;2023-08-31T11:40:22;97869.81;;;18.58;47.89
46392;BME280;32098;49.448;7.904;2023-08-31T11:42:49;97873.34;;;18.58;48.79
46392;BME280;32098;49.448;7.904;2023-08-31T11:45:19;97872.41;;;18.68;48.30
46392;BME280;32098;49.448;7.904;2023-08-31T11:47:47;97875.91;;;18.68;48.32
46392;BME280;32098;49.448;7.904;2023-08-31T11:50:15;97877.75;;;18.73;48.10
46392;BME280;32098;49.448;7.904;2023-08-31T11:52:44;97869.53;;;19.02;48.60
46392;BME280;32098;49.448;7.904;2023-08-31T11:55:14;97865.38;;;19.09;47.82
46392;BME280;32098;49.448;7.904;2023-08-31T11:57:48;97863.44;;;19.10;47.08
46392;BME280;32098;49.448;7.904;2023-08-31T12:00:23;97859.44;;;19.07;47.59
46392;BME280;32098;49.448;7.904;2023-08-31T12:02:58;97857.91;;;19.01;47.88
46392;BME280;32098;49.448;7.904;2023-08-31T12:05:26;97856.13;;;19.10;49.62
46392;BME280;32098;49.448;7.904;2023-08-31T12:07:56;97857.00;;;18.87;49.58
46392;BME280;32098;49.448;7.904;2023-08-31T12:10:25;97841.50;;;18.74;48.32
46392;BME280;32098;49.448;7.904;2023-08-31T12:12:52;97857.25;;;18.67;48.34
46392;BME280;32098;49.448;7.904;2023-08-31T12:15:21;97857.31;;;18.62;50.52
46392;BME280;32098;49.448;7.904;2023-08-31T12:17:49;97856.59;;;18.56;50.58
46392;BME280;32098;49.448;7.904;2023-08-31T12:20:25;97860.31;;;18.42;50.89
46392;BME280;32098;49.448;7.904;2023-08-31T12:22:54;97863.19;;;18.27;51.12
46392;BME280;32098;49.448;7.904;2023-08-31T12:25:22;97869.16;;;18.24;50.61
46392;BME280;32098;49.448;7.904;2023-08-31T12:27:49;97882.25;;;18.12;51.20
46392;BME280;32098;49.448;7.904;2023-08-31T12:30:16;97882.84;;;18.08;51.95
46392;BME280;32098;49.448;7.904;2023-08-31T12:32:43;97885.53;;;18.08;53.30
46392;BME280;32098;49.448;7.904;2023-08-31T12:35:09;97883.34;;;18.11;54.17
46392;BME280;32098;49.448;7.904;2023-08-31T12:37:37;97881.72;;;18.09;53.43
46392;BME280;32098;49.448;7.904;2023-08-31T12:40:05;97872.22;;;18.12;54.14
46392;BME280;32098;49.448;7.904;2023-08-31T12:42:33;97878.91;;;18.20;53.44
46392;BME280;32098;49.448;7.904;2023-08-31T12:44:59;97867.03;;;18.21;51.42
46392;BME280;32098;49.448;7.904;2023-08-31T12:47:26;97857.28;;;18.20;52.31
46392;BME280;32098;49.448;7.904;2023-08-31T12:49:52;97866.44;;;18.24;52.51
46392;BME280;32098;49.448;7.904;2023-08-31T12:52:19;97867.06;;;18.16;52.86
46392;BME280;32098;49.448;7.904;2023-08-31T12:54:45;97868.88;;;17.96;50.99
46392;BME280;32098;49.448;7.904;2023-08-31T12:57:12;97872.09;;;17.98;51.34
46392;BME280;32098;49.448;7.904;2023-08-31T12:59:39;97862.41;;;17.92;50.99
46392;BME280;32098;49.448;7.904;2023-08-31T13:02:05;97859.19;;;17.90;50.61
46392;BME280;32098;49.448;7.904;2023-08-31T13:04:37;97862.88;;;17.99;50.35
46392;BME280;32098;49.448;7.904;2023-08-31T13:07:06;97850.50;;;18.22;49.82
46392;BME280;32098;49.448;7.904;2023-08-31T13:09:33;97853.28;;;18.41;49.81
46392;BME280;32098;49.448;7.904;2023-08-31T13:11:59;97865.50;;;18.57;49.32
46392;BME280;32098;49.448;7.904;2023-08-31T13:14:25;97856.53;;;18.61;49.00
46392;BME280;32098;49.448;7.904;2023-08-31T13:16:52;97852.31;;;18.74;48.67
46392;BME280;32098;49.448;7.904;2023-08-31T13:19:19;97854.34;;;18.82;49.24